createdAt,value
2022-10-13T00:00:22.638Z,28.90
2022-10-13T00:05:24.628Z,29.00
2022-10-13T00:10:27.560Z,29.60
2022-10-13T00:15:29.546Z,29.00
2022-10-13T00:20:31.539Z,29.70
2022-10-13T00:25:33.527Z,29.60
2022-10-13T00:30:36.677Z,28.90
2022-10-13T00:35:47.541Z,29.60
2022-10-13T00:40:52.812Z,29.10
2022-10-13T00:45:55.152Z,29.70
2022-10-13T00:50:58.493Z,29.10
2022-10-13T00:56:01.125Z,29.10
2022-10-13T01:01:05.013Z,29.00
2022-10-13T01:06:08.730Z,29.60
2022-10-13T01:11:35.823Z,29.50
2022-10-13T01:17:02.379Z,29.70
2022-10-13T01:22:20.618Z,29.70
2022-10-13T01:27:38.725Z,29.00
2022-10-13T01:32:52.815Z,29.50
2022-10-13T01:38:03.087Z,29.00
2022-10-13T01:43:14.115Z,29.30
2022-10-13T01:48:17.582Z,29.10
2022-10-13T01:53:23.569Z,29.00
2022-10-13T01:58:30.823Z,29.10
2022-10-13T02:04:03.176Z,29.00
2022-10-13T02:09:32.213Z,29.80
2022-10-13T02:14:38.204Z,29.60
2022-10-13T02:19:40.223Z,29.20
2022-10-13T02:24:42.473Z,29.40
2022-10-13T02:29:56.336Z,29.30
2022-10-13T02:35:00.118Z,29.20
2022-10-13T02:40:02.123Z,29.80
2022-10-13T02:45:05.279Z,29.80
2022-10-13T02:50:07.991Z,29.80
2022-10-13T02:55:10.350Z,29.60
2022-10-13T03:00:14.026Z,29.70
2022-10-13T03:05:16.265Z,29.60
2022-10-13T03:10:18.360Z,29.70
2022-10-13T03:15:20.385Z,30.20
2022-10-13T03:20:23.160Z,30.20
2022-10-13T03:25:25.236Z,29.50
2022-10-13T03:30:27.483Z,30.00
2022-10-13T03:35:29.461Z,29.80
2022-10-13T03:40:31.467Z,30.20
2022-10-13T03:45:33.486Z,30.20
2022-10-13T03:50:37.244Z,30.30
2022-10-13T03:55:39.240Z,29.80
2022-10-13T04:00:41.744Z,29.80
2022-10-13T04:10:46.305Z,29.90
2022-10-13T04:15:48.351Z,30.50
2022-10-13T04:20:50.368Z,30.70
2022-10-13T04:25:52.373Z,30.00
2022-10-13T04:30:54.504Z,30.00
2022-10-13T04:35:56.632Z,30.70
2022-10-13T04:40:58.658Z,30.70
2022-10-13T04:46:03.730Z,29.70
2022-10-13T04:51:09.120Z,30.60
2022-10-13T04:56:16.790Z,30.00
2022-10-13T05:01:22.639Z,30.00
2022-10-13T05:06:31.709Z,29.80
2022-10-13T05:11:33.838Z,29.80
2022-10-13T05:16:35.867Z,29.80
2022-10-13T05:21:38.999Z,29.90
2022-10-13T05:31:43.611Z,30.00
2022-10-13T05:36:45.627Z,30.80
2022-10-13T05:41:47.612Z,30.90
2022-10-13T05:46:54.220Z,31.10
2022-10-13T05:52:01.050Z,30.60
2022-10-13T05:57:05.318Z,30.70
2022-10-13T06:02:10.326Z,30.70
2022-10-13T06:07:13.324Z,31.00
2022-10-13T06:12:16.042Z,30.90
2022-10-13T06:17:18.189Z,31.00
2022-10-13T06:22:22.289Z,31.10
2022-10-13T06:27:24.680Z,31.10
2022-10-13T06:32:28.659Z,31.20
2022-10-13T06:37:30.806Z,31.40
2022-10-13T06:42:34.797Z,31.40
2022-10-13T06:47:41.465Z,31.40
2022-10-13T06:52:43.902Z,31.50
2022-10-13T06:57:45.943Z,31.70
2022-10-13T07:02:52.304Z,31.60
2022-10-13T07:07:54.317Z,31.90
2022-10-13T07:12:57.328Z,32.50
2022-10-13T07:17:59.799Z,31.80
2022-10-13T07:23:04.013Z,31.80
2022-10-13T07:28:05.951Z,31.70
2022-10-13T07:33:08.515Z,32.40
2022-10-13T07:38:11.459Z,31.90
2022-10-13T07:43:16.235Z,31.80
2022-10-13T07:48:18.360Z,32.00
2022-10-13T07:53:20.494Z,32.50
2022-10-13T07:58:22.593Z,32.50
2022-10-13T08:08:28.183Z,31.00
2022-10-13T08:13:30.300Z,30.80
2022-10-13T08:18:32.345Z,30.80
2022-10-13T08:23:34.908Z,31.10
2022-10-13T08:28:37.017Z,31.00
2022-10-13T08:33:40.875Z,30.20
2022-10-13T08:38:45.790Z,31.00
2022-10-13T08:44:56.650Z,30.40
2022-10-13T08:49:30.846Z,30.40
2022-10-13T08:54:33.208Z,31.10
2022-10-13T08:59:35.286Z,30.50
2022-10-13T09:04:41.674Z,30.50
2022-10-13T09:09:43.870Z,31.20
2022-10-13T09:15:07.378Z,30.50
2022-10-13T09:20:25.449Z,30.20
2022-10-13T09:25:27.615Z,30.00
2022-10-13T09:30:42.200Z,30.30
2022-10-13T09:36:06.146Z,31.20
2022-10-13T09:41:16.664Z,30.40
2022-10-13T09:46:45.172Z,30.50
2022-10-13T09:51:48.124Z,30.40
2022-10-13T09:56:59.119Z,31.10
2022-10-13T10:02:39.061Z,30.20
2022-10-13T10:07:41.562Z,30.10
2022-10-13T10:12:44.485Z,30.80
2022-10-13T10:17:54.456Z,30.60
2022-10-13T10:23:06.304Z,31.70
2022-10-13T10:28:22.673Z,31.40
2022-10-13T10:33:59.295Z,30.80
2022-10-13T10:39:15.315Z,31.70
2022-10-13T10:44:27.655Z,31.70
2022-10-13T10:49:32.828Z,31.30
2022-10-13T10:54:53.933Z,32.10
2022-10-13T11:00:05.069Z,32.20
2022-10-13T11:05:07.725Z,32.90
2022-10-13T11:10:18.805Z,32.30
2022-10-13T11:15:25.725Z,32.30
2022-10-13T11:20:33.997Z,31.70
2022-10-13T11:25:44.747Z,32.50
2022-10-13T11:30:52.479Z,31.20
2022-10-13T11:35:54.596Z,32.10
2022-10-13T11:40:56.593Z,31.50
2022-10-13T11:46:51.251Z,30.40
2022-10-13T11:52:27.242Z,31.10
2022-10-13T11:57:33.050Z,31.00
2022-10-13T12:02:36.987Z,30.30
2022-10-13T12:07:41.557Z,30.70
2022-10-13T12:12:49.463Z,30.10
2022-10-13T12:17:51.797Z,30.00
2022-10-13T12:22:55.495Z,29.90
2022-10-13T12:28:00.910Z,29.50
2022-10-13T12:33:14.569Z,29.40
2022-10-13T12:38:21.443Z,29.30
2022-10-13T12:43:25.478Z,29.70
2022-10-13T12:48:33.262Z,29.40
2022-10-13T12:53:38.808Z,29.60
2022-10-13T12:58:43.530Z,28.80
2022-10-13T13:03:45.585Z,29.20
2022-10-13T13:09:12.304Z,28.30
2022-10-13T13:14:25.441Z,28.30
2022-10-13T13:19:30.688Z,28.30
2022-10-13T13:24:40.135Z,28.20
2022-10-13T13:29:45.319Z,28.20
2022-10-13T13:34:47.930Z,28.40
2022-10-13T13:39:50.062Z,28.50
2022-10-13T13:44:52.112Z,28.30
2022-10-13T13:49:56.653Z,28.10
2022-10-13T13:54:58.719Z,27.90
2022-10-13T14:00:00.753Z,28.00
2022-10-13T14:05:02.770Z,27.90
2022-10-13T14:10:05.852Z,27.70
2022-10-13T14:15:08.777Z,27.60
2022-10-13T14:20:11.269Z,27.70
2022-10-13T14:25:14.124Z,27.80
2022-10-13T14:30:16.312Z,28.20
2022-10-13T14:35:18.658Z,28.70
2022-10-13T14:40:20.661Z,28.30
2022-10-13T14:45:22.739Z,28.60
2022-10-13T14:50:24.804Z,28.50
2022-10-13T14:55:32.022Z,28.80
2022-10-13T15:00:34.085Z,29.10
2022-10-13T15:05:36.643Z,28.90
2022-10-13T15:10:38.822Z,29.10
2022-10-13T15:15:49.813Z,29.20
2022-10-13T15:20:52.865Z,29.20
2022-10-13T15:26:00.027Z,29.30
2022-10-13T15:31:02.147Z,29.80
2022-10-13T15:36:04.947Z,29.50
2022-10-13T15:41:07.353Z,29.80
2022-10-13T15:46:13.097Z,30.80
2022-10-13T15:51:19.341Z,30.00
2022-10-13T15:56:21.388Z,30.00
2022-10-13T16:01:23.609Z,30.00
2022-10-13T16:06:26.543Z,30.20
2022-10-13T16:11:28.685Z,31.30
2022-10-13T16:16:30.789Z,30.60
2022-10-13T16:21:32.822Z,30.70
2022-10-13T16:26:36.831Z,31.90
2022-10-13T16:31:38.877Z,30.80
2022-10-13T16:36:40.982Z,31.10
2022-10-13T16:41:43.126Z,30.90
2022-10-13T16:46:45.655Z,31.00
2022-10-13T16:51:47.705Z,31.30
2022-10-13T16:56:51.329Z,31.30
2022-10-13T17:01:53.817Z,31.30
2022-10-13T17:06:55.846Z,31.50
2022-10-13T17:11:59.381Z,31.60
2022-10-13T17:17:01.411Z,31.80
2022-10-13T17:22:03.561Z,31.80
2022-10-13T17:27:05.583Z,31.70
2022-10-13T17:32:09.146Z,32.50
2022-10-13T17:37:11.247Z,32.50
2022-10-13T17:42:13.294Z,31.70
2022-10-13T17:47:16.054Z,31.60
2022-10-13T17:52:18.092Z,31.60
2022-10-13T17:57:21.628Z,31.10
2022-10-13T18:02:24.631Z,31.50
2022-10-13T18:07:26.661Z,32.50
2022-10-13T18:12:28.758Z,32.00
2022-10-13T18:17:30.770Z,32.20
2022-10-13T18:22:32.797Z,32.20
2022-10-13T18:27:34.886Z,33.30
2022-10-13T18:32:36.949Z,32.60
2022-10-13T18:37:39.007Z,32.50
2022-10-13T18:42:45.846Z,32.70
2022-10-13T18:47:51.622Z,32.80
2022-10-13T18:52:53.674Z,32.80
2022-10-13T18:57:55.847Z,32.80
2022-10-13T19:02:57.985Z,32.80
2022-10-13T19:13:03.018Z,32.90
2022-10-13T19:18:06.412Z,32.90
2022-10-13T19:23:16.672Z,33.00
2022-10-13T19:28:19.446Z,33.00
2022-10-13T19:33:21.473Z,32.90
2022-10-13T19:38:23.925Z,32.90
2022-10-13T19:43:25.997Z,32.90
2022-10-13T19:48:28.314Z,33.80
2022-10-13T19:53:30.378Z,33.80
2022-10-13T19:58:33.191Z,34.10
2022-10-13T20:03:35.168Z,33.00
2022-10-13T20:08:37.398Z,33.20
2022-10-13T20:13:39.551Z,33.20
2022-10-13T20:18:42.513Z,33.20
2022-10-13T20:23:44.656Z,33.10
2022-10-13T20:28:48.389Z,33.10
2022-10-13T20:33:58.300Z,33.20
2022-10-13T20:39:03.338Z,33.10
2022-10-13T20:44:06.055Z,33.20
2022-10-13T20:49:11.894Z,33.00
2022-10-13T20:54:15.794Z,33.10
2022-10-13T20:59:17.788Z,33.10
2022-10-13T21:04:19.866Z,33.00
2022-10-13T21:09:22.060Z,33.00
2022-10-13T21:14:24.181Z,33.20
2022-10-13T21:19:28.996Z,33.20
2022-10-13T21:24:31.139Z,33.40
2022-10-13T21:29:33.176Z,33.30
2022-10-13T21:34:35.244Z,33.40
2022-10-13T21:39:37.336Z,33.30
2022-10-13T21:44:39.377Z,33.30
2022-10-13T21:49:42.723Z,34.30
2022-10-13T21:54:44.798Z,34.20
2022-10-13T21:59:47.379Z,33.40
2022-10-13T22:04:49.883Z,33.50
2022-10-13T22:14:54.480Z,33.70
2022-10-13T22:19:56.636Z,33.70
2022-10-13T22:24:58.806Z,33.70
2022-10-13T22:30:07.548Z,33.70
2022-10-13T22:35:09.815Z,33.90
2022-10-13T22:40:12.172Z,33.90
2022-10-13T22:45:14.226Z,34.00
2022-10-13T22:50:16.710Z,35.30
2022-10-13T22:55:18.826Z,34.70
2022-10-13T23:00:20.976Z,34.00
2022-10-13T23:05:23.909Z,34.00
2022-10-13T23:10:26.073Z,33.90
2022-10-13T23:15:28.444Z,33.90
2022-10-13T23:20:30.619Z,33.90
2022-10-13T23:25:34.913Z,33.80
2022-10-13T23:30:37.288Z,33.80
2022-10-13T23:35:39.330Z,33.90
2022-10-13T23:40:41.496Z,33.90
2022-10-13T23:45:43.911Z,34.00
2022-10-13T23:55:50.911Z,33.80
